Hathorne, MA (01937)

1:29 PM EDT on September 05, 2015 (GMT -0400)
Danvers | | Change Station
CLOSE
Current Station
Personal Weather Station
Location: Danvers, MA
Elevation: 46 ft
Nearby Weather Stations

Elev 46 ft 42.55 °N, 70.95 °W | Updated 27 seconds ago

Clear
Clear
79.5 °F
Feels Like 80 °F
N
2.2
Wind Variable Wind from NE
Gusts 3.8 mph

Today
High -- | Low -- °F
--% Chance of Precip.
Yesterday
High -- | Low -- °F
Precip. -- in
6:12 AM 7:11 PM
Waning Gibbous, 47% visible
Pressure 30.24 in
Visibility 10.0 miles
Clouds Clear
Heat Index 80 °F
Dew Point 52 °F
Humidity 39%
Rainfall 0.00 in
Snow Depth Not available.
UV 9 out of 12
Pollen 8.50 out of 12
Air Quality Not available.
Flu Activity Not available.
METAR KBVY 051653Z 14009KT 10SM CLR 24/09 A3025 RMK AO2 SLP240 T02390094
Pressure 30.24 in
Visibility 10.0 miles
Clouds Clear
Heat Index 80 °F
Dew Point 52 °F
Humidity 39%
Rainfall 0.00 in
Snow Depth Not available.
UV 9 out of 12
Pollen 8.50 out of 12
Air Quality Not available.
Flu Activity Not available.
METAR KBVY 051653Z 14009KT 10SM CLR 24/09 A3025 RMK AO2 SLP240 T02390094

10-Day Weather Forecast

×

Almanac

Astronomy

Sep. 05, 2015 Rise Set
Actual Time
Civil Twilight
Nautical Twilight
Astronomical Twilight
Moon
Length of Visible Light
Length of Day
Tomorrow will be .
, % of the Moon is Illuminated

Today's Extremes

State Highs State Lows

Community

WunderPhotos

Upload Photos

1,852,506 photos uploaded!

WunderBlogs® & News

Nearby

Air Quality

  Air Quality AQ Index Pollutant
Not available.

Snow Depth

Station Depth Elevation

Earthquake Activity

City Distance Mag. Time & Date
Minimum magnitude displayed is 2.5.

Coastal Water Temperatures

Place Temperature

Stations

Nearby Weather Stations

Station Location Temp. Windchill Dew Point Humidity Wind Precip. Elev Updated Type